Kendall, WI (54638)

6:52 AM CDT on April 25, 2015 (GMT -0500)
Kendall, Wi. | | Change Station
CLOSE
Current Station
Personal Weather Station
Location: Kendall, WI
Elevation: 1021 ft
Nearby Weather Stations

Elev 1021 ft 43.79 °N, 90.37 °W | Updated 7 seconds ago

Overcast
Overcast
38.5 °F
Feels Like 34 °F
N
6.0
Wind Variable Wind from ESE
Gusts 6.0 mph

Today
High -- | Low -- °F
--% Chance of Precip.
Yesterday
High -- | Low -- °F
Precip. -- in
6:02 AM 7:57 PM
Waxing Crescent, 45% visible
Pressure 29.85 in
Visibility 10.0 miles
Clouds Scattered Clouds 1300 ft
Overcast 3400 ft
Windchill 34 °F
Dew Point 34 °F
Humidity 83%
Rainfall 0.00 in
Snow Depth Not available.
UV 0 out of 12
Pollen 8.80 out of 12
Air Quality Not available.
Flu Activity Local Activity
SPECI KVOK 251118Z AUTO 08009KT 10SM SCT013 OVC034 03/03 A2985 RMK AO2

More Conditions Fewer Conditions

Pressure 29.85 in
Visibility 10.0 miles
Clouds Scattered Clouds 1300 ft
Overcast 3400 ft
Windchill 34 °F
Dew Point 34 °F
Humidity 83%
Rainfall 0.00 in
Snow Depth Not available.
UV 0 out of 12
Pollen 8.80 out of 12
Air Quality Not available.
Flu Activity Local Activity
SPECI KVOK 251118Z AUTO 08009KT 10SM SCT013 OVC034 03/03 A2985 RMK AO2

More Conditions Fewer Conditions

10-Day Weather Forecast

Almanac

Astronomy

Apr. 25, 2015 Rise Set
Actual Time
Civil Twilight
Nautical Twilight
Astronomical Twilight
Moon
Length of Visible Light
Length of Day
Tomorrow will be .
, % of the Moon is Illuminated

Today's Extremes

State Highs State Lows

Community

WunderPhotos

Upload Photos

1,816,639 photos uploaded!

WunderBlogs® & News

Nearby

Air Quality

  Air Quality AQ Index Pollutant
Not available.

Snow Depth

Station Depth Elevation

Earthquake Activity

City Distance Mag. Time & Date
Minimum magnitude displayed is 2.5.

Coastal Water Temperatures

Place Temperature

Stations

Nearby Weather Stations

Station Location Temp. Windchill Dew Point Humidity Wind Precip. Elev Updated Type